Camilo Daza International Airport
SKCC : now visible

Airfield :











YOU CAN JOIN US ON...

 
LOGIN :

Register | Disclaimer

   EN    FR    IT 

 









Legend :    VFR   Marginal VFR   IFR   Intensive IFR   Very Intensive IFR
Visi :
Ceiling :
>= 8 km
>= 3000ft
5 to 8 km
1000 to 3000 ft
1500m to 5 km
500 to 1000 ft
800 to 1500m
200 to 500 ft
< 800m
< 200 ft
Symbols :   Thunderstorms  Fog  Heavy snow  Heavy precipitations  Wind > 20 kt






- Airport Elevation : 1096 ft
- IATA code : CUC


SKCC - Camilo Daza International

CURRENT METAR :
  • 071200Z VRB02KT 9999 SCT015 BKN070 24/23 A3002

EXPIRED METARs :
  • 071100Z 29004KT 8000 VCFG SCT015 BKN070 24/23 A3001
  • 071000Z 29004KT 250V340 8000 VCFG SCT015 BKN070 23/22 A2999

TAF TAF SKCC
Valid from the 07 at 12:00 until the 08 at 12:00 UTC


071030Z 0712/0812 VRB02KT 9999 SCT023
TEMPO 0712/0714 5000 BCFG SCT010
BECMG 0716/0718 36014KT TX34/0718Z TN23/0811Z



MET'MAP, your aeronautical weather chart ! - Copyright ORBIFLY December 2007 - Disclaimer

ORBIFLY MET'MAP TEAM :

Programming & Development : Alexandra Zaïnal
Concept & original design : Baudouin d'Aumeries
Assistance for programming : Marc-Olivier Méhu
Technical & hardware support : Manuel Goepfert

Contact : metmap@orbifly.com




SOURCES & CREDITS :

   NOAA       Earth
Advisory